sensor_id;sensor_type;location;lat;lon;timestamp;pressure;altitude;pressure_sealevel;temperature;humidity
25232;BME280;13176;51.140;6.290;2022-12-10T00:01:34;100141.03;;;3.24;72.63
25232;BME280;13176;51.140;6.290;2022-12-10T00:04:01;100146.09;;;3.15;72.77
25232;BME280;13176;51.140;6.290;2022-12-10T00:06:31;100109.88;;;2.94;72.70
25232;BME280;13176;51.140;6.290;2022-12-10T00:08:59;100148.75;;;3.28;71.59
25232;BME280;13176;51.140;6.290;2022-12-10T00:11:27;100118.59;;;3.11;72.37
25232;BME280;13176;51.140;6.290;2022-12-10T00:13:54;100140.16;;;3.26;72.06
25232;BME280;13176;51.140;6.290;2022-12-10T00:16:23;100151.34;;;3.33;71.31
25232;BME280;13176;51.140;6.290;2022-12-10T00:18:50;100139.28;;;3.23;71.75
25232;BME280;13176;51.140;6.290;2022-12-10T00:21:20;100148.69;;;3.15;71.59
25232;BME280;13176;51.140;6.290;2022-12-10T00:23:47;100120.31;;;3.07;71.69
25232;BME280;13176;51.140;6.290;2022-12-10T00:26:23;100123.66;;;2.99;71.71
25232;BME280;13176;51.140;6.290;2022-12-10T00:28:51;100106.47;;;2.98;71.57
25232;BME280;13176;51.140;6.290;2022-12-10T00:31:23;100119.34;;;2.96;71.43
25232;BME280;13176;51.140;6.290;2022-12-10T00:33:53;100112.41;;;2.85;71.21
25232;BME280;13176;51.140;6.290;2022-12-10T00:36:28;100125.31;;;2.88;71.08
25232;BME280;13176;51.140;6.290;2022-12-10T00:38:55;100120.13;;;2.82;70.83
25232;BME280;13176;51.140;6.290;2022-12-10T00:41:22;100130.38;;;2.77;71.46
25232;BME280;13176;51.140;6.290;2022-12-10T00:43:49;100082.91;;;2.44;72.04
25232;BME280;13176;51.140;6.290;2022-12-10T00:46:16;100163.09;;;2.92;71.15
25232;BME280;13176;51.140;6.290;2022-12-10T00:48:44;100163.16;;;2.98;71.49
25232;BME280;13176;51.140;6.290;2022-12-10T00:51:17;100085.63;;;2.62;71.12
25232;BME280;13176;51.140;6.290;2022-12-10T00:53:46;100164.91;;;3.05;70.51
25232;BME280;13176;51.140;6.290;2022-12-10T00:56:14;100152.78;;;2.87;71.21
25232;BME280;13176;51.140;6.290;2022-12-10T00:58:41;100149.09;;;2.60;71.20
25232;BME280;13176;51.140;6.290;2022-12-10T01:01:26;100143.94;;;2.54;71.88
25232;BME280;13176;51.140;6.290;2022-12-10T01:03:55;100164.56;;;2.61;72.62
25232;BME280;13176;51.140;6.290;2022-12-10T01:06:33;100138.72;;;2.48;71.79
25232;BME280;13176;51.140;6.290;2022-12-10T01:09:05;100169.78;;;2.69;71.51
25232;BME280;13176;51.140;6.290;2022-12-10T01:11:38;100151.00;;;2.79;72.15
25232;BME280;13176;51.140;6.290;2022-12-10T01:14:07;100130.22;;;2.61;71.61
25232;BME280;13176;51.140;6.290;2022-12-10T01:16:34;100104.41;;;2.49;71.02
25232;BME280;13176;51.140;6.290;2022-12-10T01:19:01;100112.09;;;2.47;71.01
25232;BME280;13176;51.140;6.290;2022-12-10T01:21:28;100164.78;;;2.84;70.33
25232;BME280;13176;51.140;6.290;2022-12-10T01:23:55;100175.06;;;2.84;70.69
25232;BME280;13176;51.140;6.290;2022-12-10T01:26:26;100119.84;;;2.49;70.48
25232;BME280;13176;51.140;6.290;2022-12-10T01:28:53;100052.53;;;2.04;71.22
25232;BME280;13176;51.140;6.290;2022-12-10T01:31:24;100173.28;;;2.77;70.55
25232;BME280;13176;51.140;6.290;2022-12-10T01:33:51;100171.53;;;2.73;70.70
25232;BME280;13176;51.140;6.290;2022-12-10T01:36:22;100188.78;;;2.83;70.35
25232;BME280;13176;51.140;6.290;2022-12-10T01:38:53;100106.69;;;2.18;70.58
25232;BME280;13176;51.140;6.290;2022-12-10T01:41:25;100010.03;;;1.53;70.74
25232;BME280;13176;51.140;6.290;2022-12-10T01:46:50;100150.44;;;2.22;71.47
25232;BME280;13176;51.140;6.290;2022-12-10T01:49:41;100061.59;;;1.69;71.08
25232;BME280;13176;51.140;6.290;2022-12-10T01:52:09;100186.69;;;2.43;71.42
25232;BME280;13176;51.140;6.290;2022-12-10T01:54:43;100179.81;;;2.42;70.36
25232;BME280;13176;51.140;6.290;2022-12-10T01:57:23;100196.13;;;2.41;70.12
25232;BME280;13176;51.140;6.290;2022-12-10T01:59:53;100184.63;;;2.09;70.56
25232;BME280;13176;51.140;6.290;2022-12-10T02:08:02;100199.00;;;1.94;72.90
25232;BME280;13176;51.140;6.290;2022-12-10T02:10:55;100218.09;;;2.12;73.89
25232;BME280;13176;51.140;6.290;2022-12-10T02:13:33;100167.41;;;2.05;73.23
25232;BME280;13176;51.140;6.290;2022-12-10T02:16:15;100216.84;;;2.54;73.15
25232;BME280;13176;51.140;6.290;2022-12-10T02:18:53;100188.47;;;2.48;72.57
25232;BME280;13176;51.140;6.290;2022-12-10T02:21:37;100167.81;;;2.41;72.40
25232;BME280;13176;51.140;6.290;2022-12-10T02:24:08;100153.19;;;2.37;72.15
25232;BME280;13176;51.140;6.290;2022-12-10T02:26:53;100203.34;;;2.78;72.45
25232;BME280;13176;51.140;6.290;2022-12-10T02:29:25;100206.78;;;2.81;72.66
25232;BME280;13176;51.140;6.290;2022-12-10T02:32:01;100119.63;;;2.28;72.03
25232;BME280;13176;51.140;6.290;2022-12-10T02:34:33;100206.00;;;2.87;71.89
25232;BME280;13176;51.140;6.290;2022-12-10T02:37:05;100173.16;;;2.65;71.97
25232;BME280;13176;51.140;6.290;2022-12-10T02:39:36;100166.25;;;2.55;71.88
25232;BME280;13176;51.140;6.290;2022-12-10T02:42:06;100159.16;;;2.33;73.16
25232;BME280;13176;51.140;6.290;2022-12-10T02:44:36;100152.25;;;2.29;73.21
25232;BME280;13176;51.140;6.290;2022-12-10T02:47:03;100152.13;;;2.20;73.77
25232;BME280;13176;51.140;6.290;2022-12-10T02:49:31;100184.91;;;2.36;73.96
25232;BME280;13176;51.140;6.290;2022-12-10T02:51:59;100159.03;;;2.24;74.41
25232;BME280;13176;51.140;6.290;2022-12-10T02:54:39;100164.28;;;2.33;74.20
25232;BME280;13176;51.140;6.290;2022-12-10T03:05:51;100205.59;;;2.45;76.50
25232;BME280;13176;51.140;6.290;2022-12-10T03:08:24;100205.63;;;2.48;76.48
25232;BME280;13176;51.140;6.290;2022-12-10T03:11:05;100189.88;;;2.21;76.62
25232;BME280;13176;51.140;6.290;2022-12-10T03:16:23;100206.16;;;2.17;76.90
25232;BME280;13176;51.140;6.290;2022-12-10T03:18:55;100185.50;;;2.11;77.03
25232;BME280;13176;51.140;6.290;2022-12-10T03:21:24;100149.50;;;2.11;76.89
25232;BME280;13176;51.140;6.290;2022-12-10T03:23:52;100160.78;;;2.25;76.76
25232;BME280;13176;51.140;6.290;2022-12-10T03:26:21;100224.00;;;2.84;76.10
25232;BME280;13176;51.140;6.290;2022-12-10T03:28:56;100205.03;;;2.77;75.62
25232;BME280;13176;51.140;6.290;2022-12-10T03:31:24;100105.84;;;2.17;75.81
25232;BME280;13176;51.140;6.290;2022-12-10T03:33:51;100199.91;;;2.79;75.88
25232;BME280;13176;51.140;6.290;2022-12-10T03:36:19;100192.31;;;2.91;75.89
25232;BME280;13176;51.140;6.290;2022-12-10T03:38:46;100166.44;;;2.79;75.65
25232;BME280;13176;51.140;6.290;2022-12-10T03:41:12;100230.34;;;3.22;75.80
25232;BME280;13176;51.140;6.290;2022-12-10T03:43:56;100226.03;;;3.22;75.82
25232;BME280;13176;51.140;6.290;2022-12-10T03:46:24;100164.59;;;2.66;75.58
25232;BME280;13176;51.140;6.290;2022-12-10T03:48:51;100206.94;;;2.96;76.05
25232;BME280;13176;51.140;6.290;2022-12-10T03:51:18;100194.06;;;3.01;75.46
25232;BME280;13176;51.140;6.290;2022-12-10T03:53:45;100155.25;;;2.72;75.72
25232;BME280;13176;51.140;6.290;2022-12-10T03:56:11;100195.72;;;2.90;76.34
25232;BME280;13176;51.140;6.290;2022-12-10T03:58:38;100117.13;;;2.32;76.76
25232;BME280;13176;51.140;6.290;2022-12-10T04:01:04;100200.88;;;2.93;76.57
25232;BME280;13176;51.140;6.290;2022-12-10T04:03:34;100235.38;;;3.10;76.94
25232;BME280;13176;51.140;6.290;2022-12-10T04:06:07;100211.28;;;3.05;76.37
25232;BME280;13176;51.140;6.290;2022-12-10T04:08:34;100230.31;;;3.19;76.39
25232;BME280;13176;51.140;6.290;2022-12-10T04:11:06;100232.03;;;3.20;76.19
25232;BME280;13176;51.140;6.290;2022-12-10T04:13:33;100168.19;;;2.83;76.28
25232;BME280;13176;51.140;6.290;2022-12-10T04:16:19;100211.34;;;3.11;76.96
25232;BME280;13176;51.140;6.290;2022-12-10T04:21:27;100176.97;;;3.09;75.79
25232;BME280;13176;51.140;6.290;2022-12-10T04:24:13;100185.56;;;3.08;76.40
25232;BME280;13176;51.140;6.290;2022-12-10T04:27:01;100187.38;;;3.21;76.20
25232;BME280;13176;51.140;6.290;2022-12-10T04:29:30;100232.22;;;3.46;75.66
25232;BME280;13176;51.140;6.290;2022-12-10T04:31:57;100225.22;;;3.25;75.67
25232;BME280;13176;51.140;6.290;2022-12-10T04:34:24;100225.28;;;3.36;76.22
25232;BME280;13176;51.140;6.290;2022-12-10T04:36:51;100203.59;;;3.12;76.30
25232;BME280;13176;51.140;6.290;2022-12-10T04:39:18;100202.75;;;3.12;76.48
25232;BME280;13176;51.140;6.290;2022-12-10T04:41:46;100224.34;;;3.27;76.57
25232;BME280;13176;51.140;6.290;2022-12-10T04:44:13;100113.03;;;2.54;76.55
25232;BME280;13176;51.140;6.290;2022-12-10T04:46:39;100223.44;;;3.18;76.83
25232;BME280;13176;51.140;6.290;2022-12-10T04:49:06;100220.78;;;3.10;76.63
25232;BME280;13176;51.140;6.290;2022-12-10T04:51:32;100219.91;;;3.07;77.15
25232;BME280;13176;51.140;6.290;2022-12-10T04:53:59;100185.38;;;2.84;77.25
25232;BME280;13176;51.140;6.290;2022-12-10T04:56:26;100235.53;;;3.28;76.92
25232;BME280;13176;51.140;6.290;2022-12-10T04:58:55;100186.41;;;3.05;77.11
25232;BME280;13176;51.140;6.290;2022-12-10T05:01:21;100194.13;;;3.07;76.47
25232;BME280;13176;51.140;6.290;2022-12-10T05:03:48;100231.19;;;3.21;76.90
25232;BME280;13176;51.140;6.290;2022-12-10T05:06:16;100154.31;;;2.66;77.37
25232;BME280;13176;51.140;6.290;2022-12-10T05:08:43;100176.78;;;2.82;77.56
25232;BME280;13176;51.140;6.290;2022-12-10T05:11:14;100235.50;;;3.25;77.14
25232;BME280;13176;51.140;6.290;2022-12-10T05:13:41;100228.63;;;3.24;77.55
25232;BME280;13176;51.140;6.290;2022-12-10T05:16:10;100240.56;;;3.13;77.24
25232;BME280;13176;51.140;6.290;2022-12-10T05:18:37;100223.38;;;3.12;77.75
25232;BME280;13176;51.140;6.290;2022-12-10T05:21:06;100214.75;;;3.05;77.69
25232;BME280;13176;51.140;6.290;2022-12-10T05:23:36;100171.69;;;2.94;77.23
25232;BME280;13176;51.140;6.290;2022-12-10T05:28:39;100197.63;;;3.16;77.05
25232;BME280;13176;51.140;6.290;2022-12-10T05:31:14;100212.34;;;3.31;77.18
25232;BME280;13176;51.140;6.290;2022-12-10T05:33:42;100221.78;;;3.32;77.28
25232;BME280;13176;51.140;6.290;2022-12-10T05:36:10;100236.47;;;3.37;78.02
25232;BME280;13176;51.140;6.290;2022-12-10T05:38:38;100231.31;;;3.38;77.99
25232;BME280;13176;51.140;6.290;2022-12-10T05:41:07;100225.22;;;3.31;77.78
25232;BME280;13176;51.140;6.290;2022-12-10T05:43:34;100223.53;;;3.35;77.86
25232;BME280;13176;51.140;6.290;2022-12-10T05:46:02;100192.47;;;3.15;77.55
25232;BME280;13176;51.140;6.290;2022-12-10T05:48:29;100225.22;;;3.29;78.17
25232;BME280;13176;51.140;6.290;2022-12-10T05:50:56;100206.31;;;3.29;77.73
25232;BME280;13176;51.140;6.290;2022-12-10T05:53:23;100242.50;;;3.43;77.88
25232;BME280;13176;51.140;6.290;2022-12-10T05:55:59;100235.63;;;3.38;77.46
25232;BME280;13176;51.140;6.290;2022-12-10T05:58:27;100233.00;;;3.35;77.60
25232;BME280;13176;51.140;6.290;2022-12-10T06:00:56;100238.91;;;3.21;78.18
25232;BME280;13176;51.140;6.290;2022-12-10T06:03:23;100194.03;;;2.95;78.71
25232;BME280;13176;51.140;6.290;2022-12-10T06:05:49;100144.91;;;2.71;78.29
25232;BME280;13176;51.140;6.290;2022-12-10T06:08:16;100205.22;;;2.97;78.12
25232;BME280;13176;51.140;6.290;2022-12-10T06:10:42;100223.41;;;3.15;78.29
25232;BME280;13176;51.140;6.290;2022-12-10T06:13:09;100267.94;;;3.02;79.41
25232;BME280;13176;51.140;6.290;2022-12-10T06:15:38;100232.69;;;2.96;79.35
25232;BME280;13176;51.140;6.290;2022-12-10T06:18:05;100186.28;;;2.92;78.32
25232;BME280;13176;51.140;6.290;2022-12-10T06:20:31;100213.88;;;3.03;78.23
25232;BME280;13176;51.140;6.290;2022-12-10T06:22:58;100236.31;;;3.18;78.44
25232;BME280;13176;51.140;6.290;2022-12-10T06:25:24;100230.28;;;3.16;78.20
25232;BME280;13176;51.140;6.290;2022-12-10T06:27:51;100227.63;;;3.05;77.57
25232;BME280;13176;51.140;6.290;2022-12-10T06:30:17;100235.34;;;3.07;78.06
25232;BME280;13176;51.140;6.290;2022-12-10T06:32:43;100140.38;;;2.43;77.93
25232;BME280;13176;51.140;6.290;2022-12-10T06:35:10;100166.22;;;2.53;77.45
25232;BME280;13176;51.140;6.290;2022-12-10T06:37:36;100267.09;;;3.01;78.27
25232;BME280;13176;51.140;6.290;2022-12-10T06:40:03;100267.06;;;3.00;78.01
25232;BME280;13176;51.140;6.290;2022-12-10T06:42:30;100263.59;;;2.98;77.71
25232;BME280;13176;51.140;6.290;2022-12-10T06:44:56;100230.00;;;2.83;77.60
25232;BME280;13176;51.140;6.290;2022-12-10T06:47:23;100252.31;;;2.84;78.34
25232;BME280;13176;51.140;6.290;2022-12-10T06:49:49;100264.28;;;2.79;78.37
25232;BME280;13176;51.140;6.290;2022-12-10T06:52:16;100279.78;;;2.82;78.18
25232;BME280;13176;51.140;6.290;2022-12-10T06:54:42;100201.31;;;2.47;77.78
25232;BME280;13176;51.140;6.290;2022-12-10T06:57:09;100260.88;;;2.80;78.13
25232;BME280;13176;51.140;6.290;2022-12-10T06:59:35;100262.44;;;2.66;77.93
25232;BME280;13176;51.140;6.290;2022-12-10T07:02:01;100267.72;;;2.78;77.97
25232;BME280;13176;51.140;6.290;2022-12-10T07:04:28;100165.69;;;2.04;78.44
25232;BME280;13176;51.140;6.290;2022-12-10T07:06:54;100249.47;;;2.54;77.97
25232;BME280;13176;51.140;6.290;2022-12-10T07:09:21;100258.84;;;2.49;78.22
25232;BME280;13176;51.140;6.290;2022-12-10T07:11:47;100264.06;;;2.58;77.66
25232;BME280;13176;51.140;6.290;2022-12-10T07:14:15;100305.56;;;2.85;77.63
25232;BME280;13176;51.140;6.290;2022-12-10T07:16:42;100260.47;;;2.44;78.74
25232;BME280;13176;51.140;6.290;2022-12-10T07:19:10;100156.66;;;1.66;79.18
25232;BME280;13176;51.140;6.290;2022-12-10T07:21:40;100305.63;;;2.94;78.53
25232;BME280;13176;51.140;6.290;2022-12-10T07:24:10;100223.50;;;2.36;78.27
25232;BME280;13176;51.140;6.290;2022-12-10T07:26:39;100290.03;;;2.79;78.75
25232;BME280;13176;51.140;6.290;2022-12-10T07:29:08;100304.94;;;3.10;78.01
25232;BME280;13176;51.140;6.290;2022-12-10T07:31:35;100255.44;;;2.53;79.09
25232;BME280;13176;51.140;6.290;2022-12-10T07:37:43;100261.00;;;2.95;78.71
25232;BME280;13176;51.140;6.290;2022-12-10T07:40:10;100261.16;;;3.10;77.68
25232;BME280;13176;51.140;6.290;2022-12-10T07:42:36;100202.44;;;2.73;77.24
25232;BME280;13176;51.140;6.290;2022-12-10T07:45:03;100253.41;;;3.08;77.04
25232;BME280;13176;51.140;6.290;2022-12-10T07:47:30;100266.44;;;3.26;76.87
25232;BME280;13176;51.140;6.290;2022-12-10T07:49:56;100164.44;;;2.48;77.31
25232;BME280;13176;51.140;6.290;2022-12-10T07:52:22;100209.22;;;2.65;77.53
25232;BME280;13176;51.140;6.290;2022-12-10T07:54:51;100192.16;;;2.76;77.07
25232;BME280;13176;51.140;6.290;2022-12-10T07:57:34;100185.25;;;2.72;76.63
25232;BME280;13176;51.140;6.290;2022-12-10T08:00:01;100184.47;;;2.79;76.38
25232;BME280;13176;51.140;6.290;2022-12-10T08:02:27;100313.88;;;3.47;76.24
25232;BME280;13176;51.140;6.290;2022-12-10T08:04:54;100280.31;;;3.40;76.44
25232;BME280;13176;51.140;6.290;2022-12-10T08:07:20;100237.19;;;3.20;76.70
25232;BME280;13176;51.140;6.290;2022-12-10T08:09:46;100236.13;;;2.97;76.65
25232;BME280;13176;51.140;6.290;2022-12-10T08:12:13;100328.63;;;3.66;76.36
25232;BME280;13176;51.140;6.290;2022-12-10T08:14:39;100158.53;;;2.56;76.12
25232;BME280;13176;51.140;6.290;2022-12-10T08:17:05;100268.16;;;3.26;75.87
25232;BME280;13176;51.140;6.290;2022-12-10T08:19:32;100220.56;;;2.86;76.33
25232;BME280;13176;51.140;6.290;2022-12-10T08:21:58;100325.00;;;3.42;76.55
25232;BME280;13176;51.140;6.290;2022-12-10T08:24:25;100225.78;;;2.92;75.91
25232;BME280;13176;51.140;6.290;2022-12-10T08:26:51;100336.41;;;3.71;76.05
25232;BME280;13176;51.140;6.290;2022-12-10T08:29:18;100328.50;;;3.48;76.35
25232;BME280;13176;51.140;6.290;2022-12-10T08:31:44;100273.34;;;3.32;76.28
25232;BME280;13176;51.140;6.290;2022-12-10T08:34:13;100342.19;;;3.44;76.46
25232;BME280;13176;51.140;6.290;2022-12-10T08:36:40;100357.75;;;3.53;77.27
25232;BME280;13176;51.140;6.290;2022-12-10T08:39:07;100328.50;;;3.51;76.63
25232;BME280;13176;51.140;6.290;2022-12-10T08:41:36;100276.69;;;3.19;76.17
25232;BME280;13176;51.140;6.290;2022-12-10T08:44:02;100314.00;;;3.62;75.90
25232;BME280;13176;51.140;6.290;2022-12-10T08:46:29;100309.66;;;3.55;75.61
25232;BME280;13176;51.140;6.290;2022-12-10T08:48:55;100343.38;;;3.85;75.69
25232;BME280;13176;51.140;6.290;2022-12-10T08:51:22;100316.53;;;3.56;75.61
25232;BME280;13176;51.140;6.290;2022-12-10T08:53:48;100298.34;;;3.40;75.35
25232;BME280;13176;51.140;6.290;2022-12-10T08:56:15;100268.25;;;3.37;75.42
25232;BME280;13176;51.140;6.290;2022-12-10T08:58:42;100358.03;;;3.89;75.10
25232;BME280;13176;51.140;6.290;2022-12-10T09:01:15;100330.44;;;3.79;75.41
25232;BME280;13176;51.140;6.290;2022-12-10T09:03:47;100327.59;;;3.48;75.51
25232;BME280;13176;51.140;6.290;2022-12-10T09:06:16;100374.47;;;4.00;75.49
25232;BME280;13176;51.140;6.290;2022-12-10T09:08:44;100386.59;;;4.12;75.13
25232;BME280;13176;51.140;6.290;2022-12-10T09:11:19;100394.34;;;4.15;75.31
25232;BME280;13176;51.140;6.290;2022-12-10T09:13:47;100371.88;;;4.00;75.40
25232;BME280;13176;51.140;6.290;2022-12-10T09:16:14;100294.22;;;3.61;75.11
25232;BME280;13176;51.140;6.290;2022-12-10T09:18:40;100345.13;;;3.89;75.00
25232;BME280;13176;51.140;6.290;2022-12-10T09:21:08;100396.94;;;4.18;74.48
25232;BME280;13176;51.140;6.290;2022-12-10T09:23:36;100290.72;;;3.53;74.67
25232;BME280;13176;51.140;6.290;2022-12-10T09:26:07;100368.28;;;3.80;75.18
25232;BME280;13176;51.140;6.290;2022-12-10T09:28:35;100281.06;;;3.32;75.17
25232;BME280;13176;51.140;6.290;2022-12-10T09:31:04;100375.94;;;3.71;75.57
25232;BME280;13176;51.140;6.290;2022-12-10T09:33:40;100407.84;;;3.84;75.91
25232;BME280;13176;51.140;6.290;2022-12-10T09:36:08;100289.50;;;3.13;75.36
25232;BME280;13176;51.140;6.290;2022-12-10T09:38:37;100370.00;;;3.81;74.84
25232;BME280;13176;51.140;6.290;2022-12-10T09:47:02;100369.81;;;3.57;75.60
25232;BME280;13176;51.140;6.290;2022-12-10T09:49:46;100413.03;;;3.85;75.07
25232;BME280;13176;51.140;6.290;2022-12-10T09:52:21;100367.97;;;3.43;75.30
25232;BME280;13176;51.140;6.290;2022-12-10T09:54:58;100368.03;;;3.50;75.98
25232;BME280;13176;51.140;6.290;2022-12-10T09:57:33;100408.78;;;3.90;75.13
25232;BME280;13176;51.140;6.290;2022-12-10T10:03:00;100314.59;;;3.34;74.64
25232;BME280;13176;51.140;6.290;2022-12-10T10:05:30;100390.81;;;3.99;74.49
25232;BME280;13176;51.140;6.290;2022-12-10T10:08:01;100411.66;;;4.31;74.59
25232;BME280;13176;51.140;6.290;2022-12-10T10:10:29;100411.59;;;4.23;74.02
25232;BME280;13176;51.140;6.290;2022-12-10T10:15:37;100414.13;;;4.13;74.34
25232;BME280;13176;51.140;6.290;2022-12-10T10:21:01;100338.75;;;3.42;75.32
25232;BME280;13176;51.140;6.290;2022-12-10T10:23:28;100380.34;;;3.84;74.84
25232;BME280;13176;51.140;6.290;2022-12-10T10:25:55;100381.38;;;4.07;73.90
25232;BME280;13176;51.140;6.290;2022-12-10T10:28:22;100282.66;;;3.16;74.02
25232;BME280;13176;51.140;6.290;2022-12-10T10:30:51;100228.34;;;2.94;74.50
25232;BME280;13176;51.140;6.290;2022-12-10T10:33:18;100397.75;;;4.12;74.22
25232;BME280;13176;51.140;6.290;2022-12-10T10:35:52;100384.06;;;4.22;73.79
25232;BME280;13176;51.140;6.290;2022-12-10T10:38:22;100404.88;;;4.52;73.24
25232;BME280;13176;51.140;6.290;2022-12-10T10:40:51;100404.97;;;4.64;72.75
25232;BME280;13176;51.140;6.290;2022-12-10T10:43:27;100396.22;;;4.41;73.21
25232;BME280;13176;51.140;6.290;2022-12-10T10:46:01;100390.84;;;4.08;73.78
25232;BME280;13176;51.140;6.290;2022-12-10T10:48:33;100363.34;;;4.10;73.65
25232;BME280;13176;51.140;6.290;2022-12-10T10:58:35;100365.91;;;4.06;74.34
25232;BME280;13176;51.140;6.290;2022-12-10T11:03:30;100348.78;;;4.23;73.94
25232;BME280;13176;51.140;6.290;2022-12-10T11:05:59;100375.44;;;4.20;73.82
25232;BME280;13176;51.140;6.290;2022-12-10T11:08:29;100365.13;;;4.20;73.34
25232;BME280;13176;51.140;6.290;2022-12-10T11:11:11;100398.88;;;4.51;73.61
25232;BME280;13176;51.140;6.290;2022-12-10T11:13:38;100370.22;;;4.11;73.83
25232;BME280;13176;51.140;6.290;2022-12-10T11:16:12;100403.16;;;4.51;73.65
25232;BME280;13176;51.140;6.290;2022-12-10T11:18:53;100393.78;;;4.66;73.31
25232;BME280;13176;51.140;6.290;2022-12-10T11:21:20;100399.84;;;4.73;72.71
25232;BME280;13176;51.140;6.290;2022-12-10T11:23:53;100380.88;;;4.65;72.69
25232;BME280;13176;51.140;6.290;2022-12-10T11:29:28;100408.25;;;4.39;74.93
25232;BME280;13176;51.140;6.290;2022-12-10T11:37:34;100396.28;;;4.50;74.51
25232;BME280;13176;51.140;6.290;2022-12-10T11:40:09;100392.94;;;4.69;74.17
25232;BME280;13176;51.140;6.290;2022-12-10T11:48:55;100356.63;;;4.36;74.24
25232;BME280;13176;51.140;6.290;2022-12-10T11:52:03;100365.22;;;4.38;73.95
25232;BME280;13176;51.140;6.290;2022-12-10T12:01:08;100386.06;;;4.77;73.34
25232;BME280;13176;51.140;6.290;2022-12-10T12:04:03;100277.38;;;4.23;73.24
25232;BME280;13176;51.140;6.290;2022-12-10T12:12:09;100372.38;;;5.11;73.07
25232;BME280;13176;51.140;6.290;2022-12-10T12:14:46;100349.06;;;4.87;72.29
25232;BME280;13176;51.140;6.290;2022-12-10T12:19:50;100349.94;;;4.86;71.94
25232;BME280;13176;51.140;6.290;2022-12-10T12:22:25;100331.81;;;4.80;71.91
25232;BME280;13176;51.140;6.290;2022-12-10T12:24:59;100398.25;;;5.17;72.60
25232;BME280;13176;51.140;6.290;2022-12-10T12:27:33;100370.69;;;5.10;71.88
25232;BME280;13176;51.140;6.290;2022-12-10T12:30:13;100223.94;;;3.98;72.78
25232;BME280;13176;51.140;6.290;2022-12-10T12:33:02;100389.63;;;5.03;73.46
25232;BME280;13176;51.140;6.290;2022-12-10T12:35:47;100393.06;;;5.03;72.79
25232;BME280;13176;51.140;6.290;2022-12-10T12:38:27;100367.16;;;4.87;73.36
25232;BME280;13176;51.140;6.290;2022-12-10T12:41:04;100394.81;;;5.06;73.13
25232;BME280;13176;51.140;6.290;2022-12-10T12:46:15;100387.78;;;4.72;73.94
25232;BME280;13176;51.140;6.290;2022-12-10T12:49:09;100292.03;;;4.32;73.78
25232;BME280;13176;51.140;6.290;2022-12-10T12:55:26;100296.34;;;4.28;74.04
25232;BME280;13176;51.140;6.290;2022-12-10T12:58:31;100393.88;;;4.92;73.97
25232;BME280;13176;51.140;6.290;2022-12-10T13:05:38;100389.63;;;5.12;73.33
25232;BME280;13176;51.140;6.290;2022-12-10T13:11:33;100384.47;;;5.12;72.69
25232;BME280;13176;51.140;6.290;2022-12-10T13:14:12;100391.38;;;5.19;72.93
25232;BME280;13176;51.140;6.290;2022-12-10T13:17:24;100401.72;;;5.16;72.96
25232;BME280;13176;51.140;6.290;2022-12-10T13:20:39;100299.06;;;4.68;72.84
25232;BME280;13176;51.140;6.290;2022-12-10T13:23:53;100315.44;;;4.69;72.59
25232;BME280;13176;51.140;6.290;2022-12-10T13:30:33;100287.72;;;4.26;73.31
25232;BME280;13176;51.140;6.290;2022-12-10T13:33:17;100420.63;;;5.00;73.16
25232;BME280;13176;51.140;6.290;2022-12-10T13:35:58;100376.56;;;4.76;73.88
25232;BME280;13176;51.140;6.290;2022-12-10T14:16:40;100394.66;;;4.70;74.69
25232;BME280;13176;51.140;6.290;2022-12-10T14:19:16;100427.44;;;4.86;75.14
25232;BME280;13176;51.140;6.290;2022-12-10T14:21:46;100386.88;;;4.65;74.48
25232;BME280;13176;51.140;6.290;2022-12-10T14:24:44;100329.13;;;4.47;74.02
25232;BME280;13176;51.140;6.290;2022-12-10T14:27:56;100384.34;;;4.73;74.43
25232;BME280;13176;51.140;6.290;2022-12-10T14:31:00;100407.66;;;4.91;74.26
25232;BME280;13176;51.140;6.290;2022-12-10T14:34:37;100435.38;;;5.23;74.01
25232;BME280;13176;51.140;6.290;2022-12-10T14:37:16;100332.66;;;4.67;74.07
25232;BME280;13176;51.140;6.290;2022-12-10T14:40:04;100341.22;;;4.60;73.29
25232;BME280;13176;51.140;6.290;2022-12-10T14:42:55;100339.50;;;4.59;73.92
25232;BME280;13176;51.140;6.290;2022-12-10T14:46:00;100438.81;;;5.22;74.11
25232;BME280;13176;51.140;6.290;2022-12-10T14:48:40;100298.75;;;4.00;73.48
25232;BME280;13176;51.140;6.290;2022-12-10T14:51:16;100428.28;;;4.79;73.90
25232;BME280;13176;51.140;6.290;2022-12-10T14:54:12;100344.38;;;4.04;74.99
25232;BME280;13176;51.140;6.290;2022-12-10T14:57:01;100443.75;;;4.76;74.81
25232;BME280;13176;51.140;6.290;2022-12-10T15:02:43;100344.41;;;4.11;74.66
25232;BME280;13176;51.140;6.290;2022-12-10T15:05:52;100466.25;;;4.90;75.13
25232;BME280;13176;51.140;6.290;2022-12-10T15:08:47;100362.56;;;4.25;75.02
25232;BME280;13176;51.140;6.290;2022-12-10T15:11:27;100451.38;;;4.52;75.45
25232;BME280;13176;51.140;6.290;2022-12-10T15:14:03;100360.53;;;3.77;76.92
25232;BME280;13176;51.140;6.290;2022-12-10T15:16:41;100353.00;;;4.09;75.61
25232;BME280;13176;51.140;6.290;2022-12-10T15:19:36;100364.78;;;3.72;75.88
25232;BME280;13176;51.140;6.290;2022-12-10T15:22:26;100272.53;;;3.35;76.17
25232;BME280;13176;51.140;6.290;2022-12-10T15:25:41;100465.06;;;4.36;76.56
25232;BME280;13176;51.140;6.290;2022-12-10T15:28:37;100463.47;;;4.56;76.02
25232;BME280;13176;51.140;6.290;2022-12-10T15:31:32;100378.78;;;4.07;75.33
25232;BME280;13176;51.140;6.290;2022-12-10T15:34:10;100461.69;;;4.49;75.76
25232;BME280;13176;51.140;6.290;2022-12-10T15:37:23;100459.19;;;4.61;76.23
25232;BME280;13176;51.140;6.290;2022-12-10T15:40:59;100467.00;;;4.70;75.88
25232;BME280;13176;51.140;6.290;2022-12-10T15:43:41;100368.50;;;4.13;75.36
25232;BME280;13176;51.140;6.290;2022-12-10T15:46:50;100302.94;;;3.81;75.11
25232;BME280;13176;51.140;6.290;2022-12-10T15:49:24;100366.81;;;4.15;75.45
25232;BME280;13176;51.140;6.290;2022-12-10T15:55:30;100372.75;;;4.04;75.17
25232;BME280;13176;51.140;6.290;2022-12-10T15:58:19;100371.19;;;4.25;74.95